createdAt,value
2019-03-26T00:01:16.283Z,17.87
2019-03-26T00:06:20.094Z,13.67
2019-03-26T00:11:23.593Z,27.80
2019-03-26T00:16:27.033Z,14.53
2019-03-26T00:21:31.266Z,23.47
2019-03-26T00:26:35.143Z,24.27
2019-03-26T00:31:39.017Z,18.27
2019-03-26T00:36:42.439Z,28.73
2019-03-26T00:41:45.964Z,20.67
2019-03-26T00:46:49.369Z,22.87
2019-03-26T00:51:53.497Z,30.33
2019-03-26T00:56:56.911Z,34.27
2019-03-26T01:02:00.838Z,22.60
2019-03-26T01:07:04.728Z,29.00
2019-03-26T01:12:08.584Z,23.20
2019-03-26T01:17:12.518Z,26.30
2019-03-26T01:22:16.690Z,21.60
2019-03-26T01:27:19.359Z,34.90
2019-03-26T01:32:23.173Z,36.97
2019-03-26T01:37:27.589Z,32.97
2019-03-26T01:42:34.508Z,38.50
2019-03-26T01:47:38.333Z,22.67
2019-03-26T01:52:42.490Z,18.90
2019-03-26T01:57:46.727Z,32.97
2019-03-26T02:02:50.468Z,23.67
2019-03-26T02:07:55.811Z,36.03
2019-03-26T02:12:59.719Z,30.87
2019-03-26T02:18:02.872Z,37.40
2019-03-26T02:23:06.629Z,23.40
2019-03-26T02:28:13.197Z,20.37
2019-03-26T02:33:16.739Z,29.03
2019-03-26T02:38:20.177Z,27.03
2019-03-26T02:43:24.389Z,30.80
2019-03-26T02:48:27.805Z,21.77
2019-03-26T02:53:30.917Z,22.97
2019-03-26T02:58:34.744Z,35.00
2019-03-26T03:03:38.915Z,35.10
2019-03-26T03:08:42.701Z,34.97
2019-03-26T03:13:46.525Z,27.37
2019-03-26T03:18:49.955Z,25.67
2019-03-26T03:23:53.868Z,26.47
2019-03-26T03:28:58.101Z,32.40
2019-03-26T03:34:02.091Z,26.43
2019-03-26T03:39:07.096Z,38.90
2019-03-26T03:44:10.188Z,29.33
2019-03-26T03:49:16.056Z,38.87
2019-03-26T03:54:20.706Z,26.03
2019-03-26T03:59:26.020Z,21.83
2019-03-26T04:04:29.889Z,25.83
2019-03-26T04:09:33.996Z,24.97
2019-03-26T04:14:37.905Z,29.47
2019-03-26T04:19:41.876Z,21.77
2019-03-26T04:24:45.694Z,37.03
2019-03-26T04:29:49.472Z,25.83
2019-03-26T04:34:52.829Z,22.33
2019-03-26T04:39:56.653Z,16.63
2019-03-26T04:45:00.486Z,14.97
2019-03-26T04:50:04.671Z,7.13
2019-03-26T04:55:08.609Z,17.83
2019-03-26T05:00:12.483Z,11.17
2019-03-26T05:05:16.292Z,11.07
2019-03-26T05:10:19.519Z,13.80
2019-03-26T05:15:23.685Z,14.23
2019-03-26T05:20:27.525Z,6.30
2019-03-26T05:25:30.645Z,11.70
2019-03-26T05:30:34.141Z,13.27
2019-03-26T05:35:37.912Z,10.07
2019-03-26T05:40:41.956Z,11.17
2019-03-26T05:45:45.414Z,11.40
2019-03-26T05:50:49.177Z,21.13
2019-03-26T05:55:52.262Z,13.07
2019-03-26T06:00:56.282Z,14.90
2019-03-26T06:05:59.497Z,31.93
2019-03-26T06:11:02.617Z,15.53
2019-03-26T06:16:05.690Z,11.93
2019-03-26T06:21:08.747Z,25.93
2019-03-26T06:26:12.579Z,15.13
2019-03-26T06:31:16.466Z,10.70
2019-03-26T06:36:19.919Z,16.13
2019-03-26T06:41:24.105Z,13.70
2019-03-26T06:46:27.963Z,9.07
2019-03-26T06:51:31.801Z,5.13
2019-03-26T06:56:35.291Z,5.77
2019-03-26T07:01:39.148Z,14.43
2019-03-26T07:06:43.367Z,7.50
2019-03-26T07:11:46.462Z,15.77
2019-03-26T07:16:50.309Z,14.87
2019-03-26T07:21:54.119Z,10.47
2019-03-26T07:26:58.557Z,10.30
2019-03-26T07:32:02.663Z,19.77
2019-03-26T07:37:06.855Z,17.87
2019-03-26T07:42:11.073Z,7.90
2019-03-26T07:47:14.890Z,10.40
2019-03-26T07:52:18.296Z,11.97
2019-03-26T07:57:22.482Z,8.57
2019-03-26T08:02:25.539Z,13.20
2019-03-26T08:07:29.369Z,14.80
2019-03-26T08:12:33.019Z,26.57
2019-03-26T08:17:36.286Z,7.30
2019-03-26T08:22:39.717Z,7.80
2019-03-26T08:27:43.188Z,16.00
2019-03-26T08:32:47.048Z,10.80
2019-03-26T08:37:50.856Z,17.03
2019-03-26T08:42:55.016Z,8.53
2019-03-26T08:47:59.194Z,11.90
2019-03-26T08:53:03.069Z,10.50
2019-03-26T08:58:07.302Z,8.83
2019-03-26T09:03:11.359Z,7.77
2019-03-26T09:08:24.888Z,6.10
2019-03-26T09:13:20.571Z,12.70
2019-03-26T09:18:23.266Z,12.77
2019-03-26T09:23:26.734Z,12.80
2019-03-26T09:28:30.972Z,11.33
2019-03-26T09:33:34.662Z,16.53
2019-03-26T09:38:39.491Z,11.57
2019-03-26T09:43:43.271Z,8.70
2019-03-26T09:48:47.013Z,10.73
2019-03-26T09:53:50.812Z,6.27
2019-03-26T09:58:54.329Z,17.57
2019-03-26T10:03:58.557Z,11.07
2019-03-26T10:09:02.480Z,7.43
2019-03-26T10:14:05.907Z,9.20
2019-03-26T10:19:10.068Z,15.93
2019-03-26T10:24:13.613Z,6.33
2019-03-26T10:29:29.568Z,7.73
2019-03-26T10:34:22.920Z,5.00
2019-03-26T10:39:26.686Z,11.30
2019-03-26T10:44:30.554Z,8.73
2019-03-26T10:49:34.053Z,9.97
2019-03-26T10:54:38.219Z,5.77
2019-03-26T10:59:41.769Z,6.90
2019-03-26T11:04:45.569Z,12.90
2019-03-26T11:09:49.050Z,10.90
2019-03-26T11:14:53.260Z,11.17
2019-03-26T11:19:56.650Z,10.57
2019-03-26T11:24:59.731Z,7.00
2019-03-26T11:30:04.107Z,11.43
2019-03-26T11:35:08.824Z,15.03
2019-03-26T11:40:12.955Z,21.20
2019-03-26T11:45:17.258Z,13.10
2019-03-26T11:50:20.728Z,10.13
2019-03-26T11:55:24.868Z,6.93
2019-03-26T12:00:31.747Z,14.57
2019-03-26T12:05:35.568Z,8.90
2019-03-26T12:10:39.052Z,12.03
2019-03-26T12:15:43.261Z,10.53
2019-03-26T12:20:48.230Z,8.47
2019-03-26T12:25:52.099Z,13.50
2019-03-26T12:30:55.701Z,5.57
2019-03-26T12:35:59.120Z,8.70
2019-03-26T12:41:03.296Z,6.73
2019-03-26T12:46:07.132Z,6.77
2019-03-26T12:51:11.418Z,6.10
2019-03-26T12:56:15.243Z,3.77
2019-03-26T13:01:18.655Z,6.23
2019-03-26T13:06:22.548Z,6.70
2019-03-26T13:11:26.431Z,6.10
2019-03-26T13:16:30.516Z,12.60
2019-03-26T13:21:37.335Z,13.60
2019-03-26T13:26:39.877Z,7.20
2019-03-26T13:31:43.962Z,6.57
2019-03-26T13:36:47.473Z,11.30
2019-03-26T13:41:51.306Z,17.60
2019-03-26T13:46:55.528Z,8.40
2019-03-26T13:51:59.062Z,11.43
2019-03-26T13:57:02.886Z,7.27
2019-03-26T14:02:06.694Z,11.20
2019-03-26T14:07:10.679Z,10.27
2019-03-26T14:12:14.636Z,16.07
2019-03-26T14:17:18.151Z,19.93
2019-03-26T14:22:22.384Z,16.73
2019-03-26T14:27:25.436Z,11.97
2019-03-26T14:32:28.878Z,15.97
2019-03-26T14:37:32.763Z,9.73
2019-03-26T14:42:36.930Z,7.20
2019-03-26T14:47:40.527Z,7.47
2019-03-26T14:52:44.018Z,8.33
2019-03-26T14:57:47.545Z,12.03
2019-03-26T15:02:51.659Z,9.00
2019-03-26T15:07:55.206Z,6.40
2019-03-26T15:12:59.016Z,6.33
2019-03-26T15:18:02.632Z,5.77
2019-03-26T15:23:06.827Z,5.63
2019-03-26T15:28:11.883Z,7.50
2019-03-26T15:33:16.385Z,5.30
2019-03-26T15:38:20.259Z,5.47
2019-03-26T15:43:24.302Z,4.43
2019-03-26T15:48:27.432Z,6.53
2019-03-26T15:53:30.905Z,3.07
2019-03-26T15:58:34.754Z,9.37
2019-03-26T16:03:38.999Z,7.60
2019-03-26T16:08:43.193Z,4.97
2019-03-26T16:13:47.482Z,9.17
2019-03-26T16:18:51.592Z,2.80
2019-03-26T16:23:55.764Z,2.80
2019-03-26T16:28:59.623Z,5.90
2019-03-26T16:34:03.293Z,2.23
2019-03-26T16:39:08.038Z,2.67
2019-03-26T16:44:11.926Z,2.50
2019-03-26T16:49:15.724Z,2.20
2019-03-26T16:54:20.016Z,4.07
2019-03-26T16:59:24.188Z,3.80
2019-03-26T17:04:28.024Z,7.77
2019-03-26T17:09:38.033Z,4.13
2019-03-26T17:14:42.009Z,4.60
2019-03-26T17:19:46.318Z,7.60
2019-03-26T17:24:50.365Z,2.93
2019-03-26T17:29:55.436Z,2.90
2019-03-26T17:35:01.050Z,5.23
2019-03-26T17:40:05.668Z,8.87
2019-03-26T17:45:10.263Z,5.00
2019-03-26T17:50:14.366Z,8.37
2019-03-26T17:55:18.336Z,7.20
2019-03-26T18:00:37.064Z,9.23
2019-03-26T18:05:46.519Z,4.43
2019-03-26T18:10:51.514Z,3.40
2019-03-26T18:16:08.406Z,9.63
2019-03-26T18:21:13.874Z,12.50
2019-03-26T18:26:19.031Z,9.57
2019-03-26T18:31:22.983Z,5.00
2019-03-26T18:36:27.575Z,16.43
2019-03-26T18:41:34.112Z,9.00
2019-03-26T18:46:46.936Z,9.00
2019-03-26T18:51:55.865Z,5.97
2019-03-26T18:57:01.323Z,5.70
2019-03-26T19:02:08.421Z,7.70
2019-03-26T19:07:12.257Z,6.30
2019-03-26T19:12:15.968Z,6.97
2019-03-26T19:17:21.007Z,9.37
2019-03-26T19:22:30.444Z,3.37
2019-03-26T19:27:35.384Z,5.50
2019-03-26T19:32:40.625Z,10.73
2019-03-26T19:37:44.539Z,3.37
2019-03-26T19:42:48.347Z,9.47
2019-03-26T19:47:52.627Z,8.73
2019-03-26T19:53:01.430Z,10.90
2019-03-26T19:58:07.430Z,12.33
2019-03-26T20:03:12.178Z,27.67
2019-03-26T20:08:17.008Z,20.57
2019-03-26T20:13:24.543Z,8.73
2019-03-26T20:18:32.995Z,11.60
2019-03-26T20:23:41.027Z,12.00
2019-03-26T20:28:47.536Z,14.33
2019-03-26T20:33:54.121Z,9.33
2019-03-26T20:38:58.747Z,9.43
2019-03-26T20:44:02.258Z,13.00
2019-03-26T20:49:06.145Z,21.80
2019-03-26T20:54:12.916Z,22.37
2019-03-26T20:59:17.202Z,15.90
2019-03-26T21:04:22.351Z,16.63
2019-03-26T21:09:27.047Z,20.17
2019-03-26T21:14:31.080Z,19.33
2019-03-26T21:19:34.672Z,17.40
2019-03-26T21:24:39.250Z,15.83
2019-03-26T21:29:43.506Z,29.77
2019-03-26T21:34:48.010Z,16.70
2019-03-26T21:39:51.844Z,17.03
2019-03-26T21:44:55.353Z,26.67
2019-03-26T21:49:58.886Z,28.90
2019-03-26T21:55:02.700Z,19.73
2019-03-26T22:00:08.799Z,24.87
2019-03-26T22:05:12.617Z,22.67
2019-03-26T22:10:16.609Z,19.53
2019-03-26T22:15:20.459Z,16.03
2019-03-26T22:20:24.772Z,32.20
2019-03-26T22:25:29.166Z,34.43
2019-03-26T22:30:32.755Z,26.13
2019-03-26T22:35:36.570Z,16.90
2019-03-26T22:40:40.703Z,22.57
2019-03-26T22:45:44.444Z,16.33
2019-03-26T22:50:48.664Z,17.43
2019-03-26T22:55:52.426Z,20.17
2019-03-26T23:00:56.458Z,11.83
2019-03-26T23:06:00.275Z,42.67
2019-03-26T23:11:03.825Z,21.83
2019-03-26T23:16:08.125Z,34.83
2019-03-26T23:21:11.254Z,18.40
2019-03-26T23:26:15.168Z,18.10
2019-03-26T23:31:18.693Z,31.53
2019-03-26T23:36:22.660Z,25.77
2019-03-26T23:41:26.778Z,21.00
2019-03-26T23:46:30.677Z,22.70
2019-03-26T23:51:34.897Z,23.37
2019-03-26T23:56:38.847Z,19.63
